sensor_id;sensor_type;location;lat;lon;timestamp;temperature;humidity
45489;DHT22;31236;55.026;61.042;2023-08-06T00:01:54;18.90;90.50
45489;DHT22;31236;55.026;61.042;2023-08-06T00:04:24;18.90;90.60
45489;DHT22;31236;55.026;61.042;2023-08-06T00:06:54;18.90;90.50
45489;DHT22;31236;55.026;61.042;2023-08-06T00:09:25;18.90;90.50
45489;DHT22;31236;55.026;61.042;2023-08-06T00:11:55;18.90;90.50
45489;DHT22;31236;55.026;61.042;2023-08-06T00:14:25;18.90;90.60
45489;DHT22;31236;55.026;61.042;2023-08-06T00:16:55;18.90;90.60
45489;DHT22;31236;55.026;61.042;2023-08-06T00:19:25;19.00;90.70
45489;DHT22;31236;55.026;61.042;2023-08-06T00:21:55;19.00;90.70
45489;DHT22;31236;55.026;61.042;2023-08-06T00:24:25;19.00;90.70
45489;DHT22;31236;55.026;61.042;2023-08-06T00:26:55;19.00;90.80
45489;DHT22;31236;55.026;61.042;2023-08-06T00:29:25;18.90;90.80
45489;DHT22;31236;55.026;61.042;2023-08-06T00:31:55;18.80;90.90
45489;DHT22;31236;55.026;61.042;2023-08-06T00:34:25;18.70;91.00
45489;DHT22;31236;55.026;61.042;2023-08-06T00:36:55;18.60;91.10
45489;DHT22;31236;55.026;61.042;2023-08-06T00:39:26;18.60;91.10
45489;DHT22;31236;55.026;61.042;2023-08-06T00:41:56;18.60;91.00
45489;DHT22;31236;55.026;61.042;2023-08-06T00:44:26;18.70;90.90
45489;DHT22;31236;55.026;61.042;2023-08-06T00:46:56;18.70;90.80
45489;DHT22;31236;55.026;61.042;2023-08-06T00:49:26;18.80;90.80
45489;DHT22;31236;55.026;61.042;2023-08-06T00:51:57;18.80;90.80
45489;DHT22;31236;55.026;61.042;2023-08-06T00:54:27;18.90;90.80
45489;DHT22;31236;55.026;61.042;2023-08-06T00:56:58;18.80;90.80
45489;DHT22;31236;55.026;61.042;2023-08-06T00:59:29;18.90;90.90
45489;DHT22;31236;55.026;61.042;2023-08-06T01:02:00;18.90;91.00
45489;DHT22;31236;55.026;61.042;2023-08-06T01:04:30;18.90;91.00
45489;DHT22;31236;55.026;61.042;2023-08-06T01:16:27;19.00;90.90
45489;DHT22;31236;55.026;61.042;2023-08-06T01:18:59;19.00;90.80
45489;DHT22;31236;55.026;61.042;2023-08-06T01:21:28;19.00;90.90
45489;DHT22;31236;55.026;61.042;2023-08-06T01:23:58;19.00;90.90
45489;DHT22;31236;55.026;61.042;2023-08-06T01:27:04;19.10;90.90
45489;DHT22;31236;55.026;61.042;2023-08-06T01:29:06;19.10;90.90
45489;DHT22;31236;55.026;61.042;2023-08-06T01:34:27;19.20;91.00
45489;DHT22;31236;55.026;61.042;2023-08-06T01:36:58;19.20;91.00
45489;DHT22;31236;55.026;61.042;2023-08-06T01:39:29;19.30;91.10
45489;DHT22;31236;55.026;61.042;2023-08-06T01:41:59;19.30;91.10
45489;DHT22;31236;55.026;61.042;2023-08-06T01:44:29;19.30;91.10
45489;DHT22;31236;55.026;61.042;2023-08-06T01:46:59;19.40;91.10
45489;DHT22;31236;55.026;61.042;2023-08-06T01:49:29;19.50;91.10
45489;DHT22;31236;55.026;61.042;2023-08-06T01:51:59;19.50;91.00
45489;DHT22;31236;55.026;61.042;2023-08-06T01:54:29;19.60;91.00
45489;DHT22;31236;55.026;61.042;2023-08-06T01:56:59;19.70;91.00
45489;DHT22;31236;55.026;61.042;2023-08-06T01:59:29;19.70;91.00
45489;DHT22;31236;55.026;61.042;2023-08-06T02:01:59;19.80;91.00
45489;DHT22;31236;55.026;61.042;2023-08-06T02:04:29;19.90;91.00
45489;DHT22;31236;55.026;61.042;2023-08-06T02:06:59;19.90;91.00
45489;DHT22;31236;55.026;61.042;2023-08-06T02:09:30;19.90;91.10
45489;DHT22;31236;55.026;61.042;2023-08-06T02:11:59;20.00;91.10
45489;DHT22;31236;55.026;61.042;2023-08-06T02:14:30;20.00;91.20
45489;DHT22;31236;55.026;61.042;2023-08-06T02:17:00;20.00;91.20
45489;DHT22;31236;55.026;61.042;2023-08-06T02:19:30;20.10;91.20
45489;DHT22;31236;55.026;61.042;2023-08-06T02:22:00;20.20;91.20
45489;DHT22;31236;55.026;61.042;2023-08-06T02:24:30;20.30;91.10
45489;DHT22;31236;55.026;61.042;2023-08-06T02:27:00;20.30;91.10
45489;DHT22;31236;55.026;61.042;2023-08-06T02:29:30;20.40;91.10
45489;DHT22;31236;55.026;61.042;2023-08-06T02:32:00;20.50;91.10
45489;DHT22;31236;55.026;61.042;2023-08-06T02:34:30;20.60;91.10
45489;DHT22;31236;55.026;61.042;2023-08-06T02:37:00;20.60;91.10
45489;DHT22;31236;55.026;61.042;2023-08-06T02:39:30;20.70;91.10
45489;DHT22;31236;55.026;61.042;2023-08-06T02:42:01;20.70;91.00
45489;DHT22;31236;55.026;61.042;2023-08-06T02:44:32;20.70;91.30
45489;DHT22;31236;55.026;61.042;2023-08-06T02:47:02;20.80;91.10
45489;DHT22;31236;55.026;61.042;2023-08-06T02:49:32;20.90;91.10
45489;DHT22;31236;55.026;61.042;2023-08-06T02:52:02;21.00;91.10
45489;DHT22;31236;55.026;61.042;2023-08-06T02:54:32;21.10;91.00
45489;DHT22;31236;55.026;61.042;2023-08-06T02:57:02;21.30;90.90
45489;DHT22;31236;55.026;61.042;2023-08-06T02:59:33;21.40;90.80
45489;DHT22;31236;55.026;61.042;2023-08-06T03:02:03;21.60;90.70
45489;DHT22;31236;55.026;61.042;2023-08-06T03:04:33;21.60;90.60
45489;DHT22;31236;55.026;61.042;2023-08-06T03:07:04;21.70;90.60
45489;DHT22;31236;55.026;61.042;2023-08-06T03:09:34;21.90;90.50
45489;DHT22;31236;55.026;61.042;2023-08-06T03:12:05;21.90;90.40
45489;DHT22;31236;55.026;61.042;2023-08-06T03:14:35;21.90;90.40
45489;DHT22;31236;55.026;61.042;2023-08-06T03:17:05;21.90;90.30
45489;DHT22;31236;55.026;61.042;2023-08-06T03:19:36;22.00;90.30
45489;DHT22;31236;55.026;61.042;2023-08-06T03:22:06;22.00;90.20
45489;DHT22;31236;55.026;61.042;2023-08-06T03:24:36;22.10;90.20
45489;DHT22;31236;55.026;61.042;2023-08-06T03:27:07;22.10;90.20
45489;DHT22;31236;55.026;61.042;2023-08-06T03:29:37;22.20;90.10
45489;DHT22;31236;55.026;61.042;2023-08-06T03:32:07;22.20;90.00
45489;DHT22;31236;55.026;61.042;2023-08-06T03:34:37;22.30;90.00
45489;DHT22;31236;55.026;61.042;2023-08-06T03:37:08;22.40;90.00
45489;DHT22;31236;55.026;61.042;2023-08-06T03:39:38;22.50;89.90
45489;DHT22;31236;55.026;61.042;2023-08-06T03:42:08;22.60;89.70
45489;DHT22;31236;55.026;61.042;2023-08-06T03:44:39;22.70;89.50
45489;DHT22;31236;55.026;61.042;2023-08-06T03:47:09;22.90;89.30
45489;DHT22;31236;55.026;61.042;2023-08-06T03:49:39;23.00;89.10
45489;DHT22;31236;55.026;61.042;2023-08-06T03:52:10;23.10;88.90
45489;DHT22;31236;55.026;61.042;2023-08-06T03:54:40;23.20;88.60
45489;DHT22;31236;55.026;61.042;2023-08-06T03:57:11;23.30;88.40
45489;DHT22;31236;55.026;61.042;2023-08-06T03:59:41;23.40;88.10
45489;DHT22;31236;55.026;61.042;2023-08-06T04:02:11;23.50;88.10
45489;DHT22;31236;55.026;61.042;2023-08-06T04:04:41;23.60;87.80
45489;DHT22;31236;55.026;61.042;2023-08-06T04:07:11;23.70;87.50
45489;DHT22;31236;55.026;61.042;2023-08-06T04:10:01;23.80;87.00
45489;DHT22;31236;55.026;61.042;2023-08-06T04:12:33;23.80;86.70
45489;DHT22;31236;55.026;61.042;2023-08-06T04:15:22;23.90;86.50
45489;DHT22;31236;55.026;61.042;2023-08-06T04:17:52;23.90;86.30
45489;DHT22;31236;55.026;61.042;2023-08-06T04:20:23;23.90;86.10
45489;DHT22;31236;55.026;61.042;2023-08-06T04:22:54;23.90;85.90
45489;DHT22;31236;55.026;61.042;2023-08-06T04:25:24;23.90;85.80
45489;DHT22;31236;55.026;61.042;2023-08-06T04:27:54;24.00;85.70
45489;DHT22;31236;55.026;61.042;2023-08-06T04:30:24;24.00;85.60
45489;DHT22;31236;55.026;61.042;2023-08-06T04:32:54;24.00;85.50
45489;DHT22;31236;55.026;61.042;2023-08-06T04:35:44;24.10;85.20
45489;DHT22;31236;55.026;61.042;2023-08-06T04:38:14;24.10;84.80
45489;DHT22;31236;55.026;61.042;2023-08-06T04:40:44;24.10;84.60
45489;DHT22;31236;55.026;61.042;2023-08-06T04:43:14;24.10;84.40
45489;DHT22;31236;55.026;61.042;2023-08-06T04:46:05;24.10;84.40
45489;DHT22;31236;55.026;61.042;2023-08-06T04:48:35;24.10;84.30
45489;DHT22;31236;55.026;61.042;2023-08-06T04:51:05;24.10;84.10
45489;DHT22;31236;55.026;61.042;2023-08-06T04:53:35;24.20;84.20
45489;DHT22;31236;55.026;61.042;2023-08-06T04:56:06;24.20;84.10
45489;DHT22;31236;55.026;61.042;2023-08-06T04:58:36;24.30;84.10
45489;DHT22;31236;55.026;61.042;2023-08-06T05:01:06;24.30;84.00
45489;DHT22;31236;55.026;61.042;2023-08-06T05:03:37;24.30;83.90
45489;DHT22;31236;55.026;61.042;2023-08-06T05:06:07;24.30;83.90
45489;DHT22;31236;55.026;61.042;2023-08-06T05:08:37;24.30;83.80
45489;DHT22;31236;55.026;61.042;2023-08-06T05:11:08;24.30;83.80
45489;DHT22;31236;55.026;61.042;2023-08-06T05:13:38;24.30;83.80
45489;DHT22;31236;55.026;61.042;2023-08-06T05:16:09;24.50;84.00
45489;DHT22;31236;55.026;61.042;2023-08-06T05:18:39;24.50;83.90
45489;DHT22;31236;55.026;61.042;2023-08-06T05:21:09;24.50;83.90
45489;DHT22;31236;55.026;61.042;2023-08-06T05:23:39;24.60;83.80
45489;DHT22;31236;55.026;61.042;2023-08-06T05:26:09;24.60;83.80
45489;DHT22;31236;55.026;61.042;2023-08-06T05:28:41;24.60;83.80
45489;DHT22;31236;55.026;61.042;2023-08-06T05:31:11;24.70;83.90
45489;DHT22;31236;55.026;61.042;2023-08-06T05:33:41;24.70;83.70
45489;DHT22;31236;55.026;61.042;2023-08-06T05:36:11;24.70;83.60
45489;DHT22;31236;55.026;61.042;2023-08-06T05:38:42;24.70;83.60
45489;DHT22;31236;55.026;61.042;2023-08-06T05:41:12;24.70;83.60
45489;DHT22;31236;55.026;61.042;2023-08-06T05:43:42;24.70;83.50
45489;DHT22;31236;55.026;61.042;2023-08-06T05:46:12;24.70;83.60
45489;DHT22;31236;55.026;61.042;2023-08-06T05:48:43;24.70;83.60
45489;DHT22;31236;55.026;61.042;2023-08-06T05:51:13;24.80;83.50
45489;DHT22;31236;55.026;61.042;2023-08-06T05:53:44;24.90;83.30
45489;DHT22;31236;55.026;61.042;2023-08-06T05:56:15;24.90;83.30
45489;DHT22;31236;55.026;61.042;2023-08-06T05:58:45;25.00;83.10
45489;DHT22;31236;55.026;61.042;2023-08-06T06:01:16;25.00;83.00
45489;DHT22;31236;55.026;61.042;2023-08-06T06:03:46;25.00;82.90
45489;DHT22;31236;55.026;61.042;2023-08-06T06:06:17;25.00;82.80
45489;DHT22;31236;55.026;61.042;2023-08-06T06:08:47;25.10;82.80
45489;DHT22;31236;55.026;61.042;2023-08-06T06:11:17;25.10;83.10
45489;DHT22;31236;55.026;61.042;2023-08-06T06:14:08;25.20;82.60
45489;DHT22;31236;55.026;61.042;2023-08-06T06:16:38;25.30;82.60
45489;DHT22;31236;55.026;61.042;2023-08-06T06:19:08;25.40;82.20
45489;DHT22;31236;55.026;61.042;2023-08-06T06:21:39;25.50;82.10
45489;DHT22;31236;55.026;61.042;2023-08-06T06:24:08;25.50;81.80
45489;DHT22;31236;55.026;61.042;2023-08-06T06:26:39;25.50;81.70
45489;DHT22;31236;55.026;61.042;2023-08-06T06:29:09;25.50;81.60
45489;DHT22;31236;55.026;61.042;2023-08-06T06:31:39;25.50;81.50
45489;DHT22;31236;55.026;61.042;2023-08-06T06:34:10;25.50;81.40
45489;DHT22;31236;55.026;61.042;2023-08-06T06:36:40;25.50;81.30
45489;DHT22;31236;55.026;61.042;2023-08-06T06:39:10;25.50;81.20
45489;DHT22;31236;55.026;61.042;2023-08-06T06:41:40;25.50;80.90
45489;DHT22;31236;55.026;61.042;2023-08-06T06:44:11;25.50;81.00
45489;DHT22;31236;55.026;61.042;2023-08-06T06:46:42;25.50;80.80
45489;DHT22;31236;55.026;61.042;2023-08-06T06:49:12;25.50;80.90
45489;DHT22;31236;55.026;61.042;2023-08-06T06:51:42;25.60;80.90
45489;DHT22;31236;55.026;61.042;2023-08-06T06:54:12;25.60;80.70
45489;DHT22;31236;55.026;61.042;2023-08-06T06:56:42;25.60;80.50
45489;DHT22;31236;55.026;61.042;2023-08-06T06:59:12;25.70;80.40
45489;DHT22;31236;55.026;61.042;2023-08-06T07:01:42;25.70;80.30
45489;DHT22;31236;55.026;61.042;2023-08-06T07:04:13;25.80;80.10
45489;DHT22;31236;55.026;61.042;2023-08-06T07:06:43;25.70;79.90
45489;DHT22;31236;55.026;61.042;2023-08-06T07:09:13;25.70;79.60
45489;DHT22;31236;55.026;61.042;2023-08-06T07:11:43;25.70;79.20
45489;DHT22;31236;55.026;61.042;2023-08-06T07:14:13;25.70;78.90
45489;DHT22;31236;55.026;61.042;2023-08-06T07:16:43;25.80;78.60
45489;DHT22;31236;55.026;61.042;2023-08-06T07:19:13;26.00;78.20
45489;DHT22;31236;55.026;61.042;2023-08-06T07:21:43;26.00;77.80
45489;DHT22;31236;55.026;61.042;2023-08-06T07:24:13;26.10;77.70
45489;DHT22;31236;55.026;61.042;2023-08-06T07:26:43;26.10;77.40
45489;DHT22;31236;55.026;61.042;2023-08-06T07:29:13;25.90;77.30
45489;DHT22;31236;55.026;61.042;2023-08-06T07:31:45;25.60;77.70
45489;DHT22;31236;55.026;61.042;2023-08-06T07:34:16;25.30;78.10
45489;DHT22;31236;55.026;61.042;2023-08-06T07:36:47;24.90;78.40
45489;DHT22;31236;55.026;61.042;2023-08-06T07:39:17;24.50;79.00
45489;DHT22;31236;55.026;61.042;2023-08-06T07:41:48;24.10;79.10
45489;DHT22;31236;55.026;61.042;2023-08-06T07:44:18;23.70;79.50
45489;DHT22;31236;55.026;61.042;2023-08-06T07:46:48;23.30;79.80
45489;DHT22;31236;55.026;61.042;2023-08-06T07:49:18;23.00;80.00
45489;DHT22;31236;55.026;61.042;2023-08-06T07:51:49;22.80;80.00
45489;DHT22;31236;55.026;61.042;2023-08-06T07:54:20;22.50;80.10
45489;DHT22;31236;55.026;61.042;2023-08-06T07:56:52;22.30;80.30
45489;DHT22;31236;55.026;61.042;2023-08-06T07:59:22;22.10;80.60
45489;DHT22;31236;55.026;61.042;2023-08-06T08:01:52;22.00;80.90
45489;DHT22;31236;55.026;61.042;2023-08-06T08:06:55;21.80;81.30
45489;DHT22;31236;55.026;61.042;2023-08-06T08:09:25;21.70;81.40
45489;DHT22;31236;55.026;61.042;2023-08-06T08:11:55;21.70;81.70
45489;DHT22;31236;55.026;61.042;2023-08-06T08:14:28;21.60;81.90
45489;DHT22;31236;55.026;61.042;2023-08-06T08:16:59;21.50;82.40
45489;DHT22;31236;55.026;61.042;2023-08-06T08:19:29;21.30;83.10
45489;DHT22;31236;55.026;61.042;2023-08-06T08:21:59;21.20;83.60
45489;DHT22;31236;55.026;61.042;2023-08-06T08:24:30;21.00;84.10
45489;DHT22;31236;55.026;61.042;2023-08-06T08:27:00;20.90;84.70
45489;DHT22;31236;55.026;61.042;2023-08-06T08:29:30;20.90;85.10
45489;DHT22;31236;55.026;61.042;2023-08-06T08:32:01;20.80;85.30
45489;DHT22;31236;55.026;61.042;2023-08-06T08:34:31;20.80;85.40
45489;DHT22;31236;55.026;61.042;2023-08-06T08:37:01;20.80;85.50
45489;DHT22;31236;55.026;61.042;2023-08-06T08:39:33;20.90;85.60
45489;DHT22;31236;55.026;61.042;2023-08-06T08:42:03;20.90;85.80
45489;DHT22;31236;55.026;61.042;2023-08-06T08:44:33;21.00;85.90
45489;DHT22;31236;55.026;61.042;2023-08-06T08:47:08;20.90;86.00
45489;DHT22;31236;55.026;61.042;2023-08-06T08:49:39;20.90;86.30
45489;DHT22;31236;55.026;61.042;2023-08-06T08:52:11;20.80;86.50
45489;DHT22;31236;55.026;61.042;2023-08-06T08:54:41;20.70;87.10
45489;DHT22;31236;55.026;61.042;2023-08-06T08:57:11;20.70;87.30
45489;DHT22;31236;55.026;61.042;2023-08-06T08:59:41;20.70;87.30
45489;DHT22;31236;55.026;61.042;2023-08-06T09:02:30;20.80;87.20
45489;DHT22;31236;55.026;61.042;2023-08-06T09:05:03;20.80;87.10
45489;DHT22;31236;55.026;61.042;2023-08-06T09:07:35;20.70;87.30
45489;DHT22;31236;55.026;61.042;2023-08-06T09:10:07;20.60;87.70
45489;DHT22;31236;55.026;61.042;2023-08-06T09:12:40;20.60;87.80
45489;DHT22;31236;55.026;61.042;2023-08-06T09:15:11;20.60;87.80
45489;DHT22;31236;55.026;61.042;2023-08-06T09:17:41;20.70;87.70
45489;DHT22;31236;55.026;61.042;2023-08-06T09:20:12;20.80;87.60
45489;DHT22;31236;55.026;61.042;2023-08-06T09:22:44;20.80;87.60
45489;DHT22;31236;55.026;61.042;2023-08-06T09:25:36;20.90;87.60
45489;DHT22;31236;55.026;61.042;2023-08-06T09:31:17;21.20;87.10
45489;DHT22;31236;55.026;61.042;2023-08-06T09:33:47;21.50;86.60
45489;DHT22;31236;55.026;61.042;2023-08-06T09:36:17;21.80;86.40
45489;DHT22;31236;55.026;61.042;2023-08-06T09:38:47;22.00;86.20
45489;DHT22;31236;55.026;61.042;2023-08-06T09:49:50;22.20;86.00
45489;DHT22;31236;55.026;61.042;2023-08-06T09:52:21;22.10;86.30
45489;DHT22;31236;55.026;61.042;2023-08-06T09:54:52;21.90;86.40
45489;DHT22;31236;55.026;61.042;2023-08-06T09:57:23;21.80;86.70
45489;DHT22;31236;55.026;61.042;2023-08-06T09:59:55;21.70;86.90
45489;DHT22;31236;55.026;61.042;2023-08-06T10:02:25;21.80;87.00
45489;DHT22;31236;55.026;61.042;2023-08-06T10:04:56;21.90;86.70
45489;DHT22;31236;55.026;61.042;2023-08-06T10:07:28;22.10;86.40
45489;DHT22;31236;55.026;61.042;2023-08-06T10:09:59;22.30;86.10
45489;DHT22;31236;55.026;61.042;2023-08-06T10:12:32;22.50;85.80
45489;DHT22;31236;55.026;61.042;2023-08-06T10:15:04;22.50;85.70
45489;DHT22;31236;55.026;61.042;2023-08-06T10:17:36;22.60;85.60
45489;DHT22;31236;55.026;61.042;2023-08-06T10:20:08;22.70;85.50
45489;DHT22;31236;55.026;61.042;2023-08-06T10:25:32;23.10;84.70
45489;DHT22;31236;55.026;61.042;2023-08-06T10:30:53;23.20;84.20
45489;DHT22;31236;55.026;61.042;2023-08-06T10:33:23;23.10;84.30
45489;DHT22;31236;55.026;61.042;2023-08-06T10:35:55;23.20;84.40
45489;DHT22;31236;55.026;61.042;2023-08-06T10:38:26;23.30;84.30
45489;DHT22;31236;55.026;61.042;2023-08-06T10:41:35;23.40;83.90
45489;DHT22;31236;55.026;61.042;2023-08-06T10:44:25;23.40;83.40
45489;DHT22;31236;55.026;61.042;2023-08-06T10:46:56;23.30;83.80
45489;DHT22;31236;55.026;61.042;2023-08-06T10:49:26;23.30;83.50
45489;DHT22;31236;55.026;61.042;2023-08-06T10:51:56;23.20;83.60
45489;DHT22;31236;55.026;61.042;2023-08-06T10:54:26;23.20;83.60
45489;DHT22;31236;55.026;61.042;2023-08-06T10:56:57;23.40;83.10
45489;DHT22;31236;55.026;61.042;2023-08-06T10:59:27;23.60;82.90
45489;DHT22;31236;55.026;61.042;2023-08-06T11:01:57;23.70;82.50
45489;DHT22;31236;55.026;61.042;2023-08-06T11:07:01;23.90;81.30
45489;DHT22;31236;55.026;61.042;2023-08-06T11:09:31;23.90;80.80
45489;DHT22;31236;55.026;61.042;2023-08-06T11:12:01;24.00;80.50
45489;DHT22;31236;55.026;61.042;2023-08-06T11:14:32;24.00;79.80
45489;DHT22;31236;55.026;61.042;2023-08-06T11:17:03;24.00;79.40
45489;DHT22;31236;55.026;61.042;2023-08-06T11:19:35;24.00;78.90
45489;DHT22;31236;55.026;61.042;2023-08-06T11:22:05;24.00;79.00
45489;DHT22;31236;55.026;61.042;2023-08-06T11:24:35;23.80;79.00
45489;DHT22;31236;55.026;61.042;2023-08-06T11:29:58;23.80;78.70
45489;DHT22;31236;55.026;61.042;2023-08-06T11:32:29;23.70;78.20
45489;DHT22;31236;55.026;61.042;2023-08-06T11:35:09;23.70;77.80
45489;DHT22;31236;55.026;61.042;2023-08-06T11:37:33;23.80;77.90
45489;DHT22;31236;55.026;61.042;2023-08-06T11:40:07;23.70;77.50
45489;DHT22;31236;55.026;61.042;2023-08-06T11:42:38;23.70;77.10
45489;DHT22;31236;55.026;61.042;2023-08-06T11:45:09;23.60;77.10
45489;DHT22;31236;55.026;61.042;2023-08-06T11:47:40;23.70;76.90
45489;DHT22;31236;55.026;61.042;2023-08-06T11:50:21;23.90;76.40
45489;DHT22;31236;55.026;61.042;2023-08-06T11:52:44;24.00;76.20
45489;DHT22;31236;55.026;61.042;2023-08-06T11:55:14;24.10;75.70
45489;DHT22;31236;55.026;61.042;2023-08-06T11:57:46;24.20;75.40
45489;DHT22;31236;55.026;61.042;2023-08-06T12:00:16;24.20;75.00
45489;DHT22;31236;55.026;61.042;2023-08-06T12:02:47;24.20;74.10
45489;DHT22;31236;55.026;61.042;2023-08-06T12:05:38;24.10;73.90
45489;DHT22;31236;55.026;61.042;2023-08-06T12:08:09;24.00;73.40
45489;DHT22;31236;55.026;61.042;2023-08-06T12:10:40;24.10;73.00
45489;DHT22;31236;55.026;61.042;2023-08-06T12:13:10;24.00;72.60
45489;DHT22;31236;55.026;61.042;2023-08-06T12:15:41;24.10;72.50
45489;DHT22;31236;55.026;61.042;2023-08-06T12:18:11;23.90;72.20
45489;DHT22;31236;55.026;61.042;2023-08-06T12:20:41;23.90;72.10
45489;DHT22;31236;55.026;61.042;2023-08-06T12:23:11;23.90;72.20
45489;DHT22;31236;55.026;61.042;2023-08-06T12:25:42;23.90;71.90
45489;DHT22;31236;55.026;61.042;2023-08-06T12:28:13;23.80;71.90
45489;DHT22;31236;55.026;61.042;2023-08-06T12:30:43;23.80;72.00
45489;DHT22;31236;55.026;61.042;2023-08-06T12:33:13;23.90;71.70
45489;DHT22;31236;55.026;61.042;2023-08-06T12:35:43;23.80;71.70
45489;DHT22;31236;55.026;61.042;2023-08-06T12:38:14;23.80;71.20
45489;DHT22;31236;55.026;61.042;2023-08-06T12:40:44;23.70;70.90
45489;DHT22;31236;55.026;61.042;2023-08-06T12:43:14;23.70;71.10
45489;DHT22;31236;55.026;61.042;2023-08-06T12:45:44;23.70;71.30
45489;DHT22;31236;55.026;61.042;2023-08-06T12:48:16;23.60;71.00
45489;DHT22;31236;55.026;61.042;2023-08-06T12:50:46;23.60;70.90
45489;DHT22;31236;55.026;61.042;2023-08-06T12:53:17;23.50;70.90
45489;DHT22;31236;55.026;61.042;2023-08-06T12:55:48;23.40;70.90
45489;DHT22;31236;55.026;61.042;2023-08-06T12:58:18;23.40;71.10
45489;DHT22;31236;55.026;61.042;2023-08-06T13:00:48;23.40;70.80
45489;DHT22;31236;55.026;61.042;2023-08-06T13:03:18;23.40;70.90
45489;DHT22;31236;55.026;61.042;2023-08-06T13:05:49;23.40;70.90
45489;DHT22;31236;55.026;61.042;2023-08-06T13:08:19;23.40;70.90
45489;DHT22;31236;55.026;61.042;2023-08-06T13:10:50;23.40;71.00
45489;DHT22;31236;55.026;61.042;2023-08-06T13:13:20;23.50;71.00
45489;DHT22;31236;55.026;61.042;2023-08-06T13:15:50;23.40;70.90
45489;DHT22;31236;55.026;61.042;2023-08-06T13:18:20;23.40;71.00
45489;DHT22;31236;55.026;61.042;2023-08-06T13:20:53;23.30;71.30
45489;DHT22;31236;55.026;61.042;2023-08-06T13:23:24;23.20;71.40
45489;DHT22;31236;55.026;61.042;2023-08-06T13:25:54;23.10;71.40
45489;DHT22;31236;55.026;61.042;2023-08-06T13:28:26;23.10;71.60
45489;DHT22;31236;55.026;61.042;2023-08-06T13:30:56;23.10;71.40
45489;DHT22;31236;55.026;61.042;2023-08-06T13:33:27;22.90;71.50
45489;DHT22;31236;55.026;61.042;2023-08-06T13:35:58;22.80;71.80
45489;DHT22;31236;55.026;61.042;2023-08-06T13:38:28;22.70;72.00
45489;DHT22;31236;55.026;61.042;2023-08-06T13:40:58;22.60;72.20
45489;DHT22;31236;55.026;61.042;2023-08-06T13:43:29;22.60;72.30
45489;DHT22;31236;55.026;61.042;2023-08-06T13:45:59;22.70;72.30
45489;DHT22;31236;55.026;61.042;2023-08-06T13:48:30;22.70;72.20
45489;DHT22;31236;55.026;61.042;2023-08-06T13:51:00;22.60;72.30
45489;DHT22;31236;55.026;61.042;2023-08-06T13:53:30;22.70;72.40
45489;DHT22;31236;55.026;61.042;2023-08-06T13:56:00;22.60;72.50
45489;DHT22;31236;55.026;61.042;2023-08-06T13:58:31;22.60;72.70
45489;DHT22;31236;55.026;61.042;2023-08-06T14:01:01;22.50;72.80
45489;DHT22;31236;55.026;61.042;2023-08-06T14:03:32;22.50;73.00
45489;DHT22;31236;55.026;61.042;2023-08-06T14:06:02;22.50;73.00
45489;DHT22;31236;55.026;61.042;2023-08-06T14:08:32;22.50;73.00
45489;DHT22;31236;55.026;61.042;2023-08-06T14:11:03;22.60;73.00
45489;DHT22;31236;55.026;61.042;2023-08-06T14:13:33;22.60;73.00
45489;DHT22;31236;55.026;61.042;2023-08-06T14:16:04;22.60;73.00
45489;DHT22;31236;55.026;61.042;2023-08-06T14:18:36;22.60;73.20
45489;DHT22;31236;55.026;61.042;2023-08-06T14:21:06;22.70;73.00
45489;DHT22;31236;55.026;61.042;2023-08-06T14:23:36;22.80;72.80
45489;DHT22;31236;55.026;61.042;2023-08-06T14:26:08;22.80;72.80
45489;DHT22;31236;55.026;61.042;2023-08-06T14:28:39;22.80;72.90
45489;DHT22;31236;55.026;61.042;2023-08-06T14:31:09;22.80;73.00
45489;DHT22;31236;55.026;61.042;2023-08-06T14:33:39;22.90;73.00
45489;DHT22;31236;55.026;61.042;2023-08-06T14:36:10;22.70;73.30
45489;DHT22;31236;55.026;61.042;2023-08-06T14:38:40;22.70;73.40
45489;DHT22;31236;55.026;61.042;2023-08-06T14:41:10;22.70;73.50
45489;DHT22;31236;55.026;61.042;2023-08-06T14:43:41;22.70;73.60
45489;DHT22;31236;55.026;61.042;2023-08-06T14:46:11;22.60;73.80
45489;DHT22;31236;55.026;61.042;2023-08-06T14:48:41;22.60;73.90
45489;DHT22;31236;55.026;61.042;2023-08-06T14:51:12;22.50;74.00
45489;DHT22;31236;55.026;61.042;2023-08-06T14:53:42;22.40;74.30
45489;DHT22;31236;55.026;61.042;2023-08-06T14:56:12;22.30;74.60
45489;DHT22;31236;55.026;61.042;2023-08-06T14:58:42;22.30;74.80
45489;DHT22;31236;55.026;61.042;2023-08-06T15:01:13;22.20;75.00
45489;DHT22;31236;55.026;61.042;2023-08-06T15:03:43;22.20;74.90
45489;DHT22;31236;55.026;61.042;2023-08-06T15:06:13;22.20;75.00
45489;DHT22;31236;55.026;61.042;2023-08-06T15:08:44;22.10;75.20
45489;DHT22;31236;55.026;61.042;2023-08-06T15:11:15;22.10;75.40
45489;DHT22;31236;55.026;61.042;2023-08-06T15:13:46;22.00;75.50
45489;DHT22;31236;55.026;61.042;2023-08-06T15:16:16;21.90;75.80
45489;DHT22;31236;55.026;61.042;2023-08-06T15:18:46;21.90;76.00
45489;DHT22;31236;55.026;61.042;2023-08-06T15:21:16;21.90;75.90
45489;DHT22;31236;55.026;61.042;2023-08-06T15:23:47;21.90;76.00
45489;DHT22;31236;55.026;61.042;2023-08-06T15:26:17;21.80;76.30
45489;DHT22;31236;55.026;61.042;2023-08-06T15:28:47;21.70;76.60
45489;DHT22;31236;55.026;61.042;2023-08-06T15:34:08;21.50;77.00
45489;DHT22;31236;55.026;61.042;2023-08-06T15:36:38;21.50;77.10
45489;DHT22;31236;55.026;61.042;2023-08-06T15:39:08;21.50;77.20
45489;DHT22;31236;55.026;61.042;2023-08-06T15:41:38;21.50;77.30
45489;DHT22;31236;55.026;61.042;2023-08-06T15:44:08;21.50;77.40
45489;DHT22;31236;55.026;61.042;2023-08-06T15:46:38;21.40;77.70
45489;DHT22;31236;55.026;61.042;2023-08-06T15:49:08;21.40;78.00
45489;DHT22;31236;55.026;61.042;2023-08-06T15:51:38;21.30;78.00
45489;DHT22;31236;55.026;61.042;2023-08-06T15:54:08;21.30;78.10
45489;DHT22;31236;55.026;61.042;2023-08-06T15:59:30;21.20;78.50
45489;DHT22;31236;55.026;61.042;2023-08-06T16:02:01;21.10;78.70
45489;DHT22;31236;55.026;61.042;2023-08-06T16:04:33;21.20;78.60
45489;DHT22;31236;55.026;61.042;2023-08-06T16:07:04;21.20;78.60
45489;DHT22;31236;55.026;61.042;2023-08-06T16:09:34;21.30;78.60
45489;DHT22;31236;55.026;61.042;2023-08-06T16:12:04;21.30;78.70
45489;DHT22;31236;55.026;61.042;2023-08-06T16:14:36;21.30;78.80
45489;DHT22;31236;55.026;61.042;2023-08-06T16:17:07;21.10;79.20
45489;DHT22;31236;55.026;61.042;2023-08-06T16:19:37;21.10;79.30
45489;DHT22;31236;55.026;61.042;2023-08-06T16:24:57;21.00;79.50